createdAt,value
2023-08-30T00:00:53.708Z,0.00
2023-08-30T00:01:53.665Z,0.00
2023-08-30T00:02:53.746Z,0.00
2023-08-30T00:03:53.702Z,0.00
2023-08-30T00:04:53.624Z,0.00
2023-08-30T00:05:56.671Z,0.00
2023-08-30T00:06:56.594Z,0.00
2023-08-30T00:07:53.632Z,0.00
2023-08-30T00:08:53.565Z,0.00
2023-08-30T00:09:53.558Z,0.00
2023-08-30T00:10:53.539Z,0.00
2023-08-30T00:11:53.522Z,0.00
2023-08-30T00:12:53.515Z,0.00
2023-08-30T00:13:53.541Z,0.00
2023-08-30T00:14:53.492Z,0.00
2023-08-30T00:15:53.473Z,0.00
2023-08-30T00:16:53.516Z,0.00
2023-08-30T00:17:53.466Z,0.00
2023-08-30T00:18:53.472Z,0.00
2023-08-30T00:19:53.432Z,0.00
2023-08-30T00:21:02.093Z,0.00
2023-08-30T00:21:53.382Z,0.00
2023-08-30T00:22:53.378Z,0.00
2023-08-30T00:23:53.381Z,0.00
2023-08-30T00:24:53.341Z,0.00
2023-08-30T00:25:56.404Z,0.00
2023-08-30T00:26:56.322Z,0.00
2023-08-30T00:27:53.297Z,0.00
2023-08-30T00:28:53.301Z,0.00
2023-08-30T00:29:53.271Z,0.00
2023-08-30T00:30:53.336Z,0.00
2023-08-30T00:31:53.249Z,0.00
2023-08-30T00:32:53.314Z,0.00
2023-08-30T00:33:53.244Z,0.00
2023-08-30T00:34:53.219Z,0.00
2023-08-30T00:35:53.237Z,0.00
2023-08-30T00:36:53.252Z,0.00
2023-08-30T00:37:53.162Z,0.00
2023-08-30T00:38:53.152Z,0.00
2023-08-30T00:39:53.148Z,0.00
2023-08-30T00:40:53.139Z,0.00
2023-08-30T00:41:53.191Z,0.00
2023-08-30T00:42:53.104Z,0.00
2023-08-30T00:43:53.084Z,0.00
2023-08-30T00:44:53.089Z,0.00
2023-08-30T00:45:56.062Z,0.00
2023-08-30T00:46:56.098Z,0.00
2023-08-30T00:47:53.082Z,0.00
2023-08-30T00:48:53.025Z,0.00
2023-08-30T00:49:52.993Z,0.00
2023-08-30T00:50:53.052Z,0.00
2023-08-30T00:51:52.983Z,0.00
2023-08-30T00:52:52.999Z,0.00
2023-08-30T00:53:52.962Z,0.00
2023-08-30T00:54:52.956Z,0.00
2023-08-30T00:55:52.956Z,0.00
2023-08-30T00:56:52.912Z,0.00
2023-08-30T00:57:52.946Z,0.00
2023-08-30T00:58:52.894Z,0.00
2023-08-30T00:59:52.868Z,0.00
2023-08-30T01:00:52.902Z,0.00
2023-08-30T01:01:52.833Z,0.00
2023-08-30T01:02:52.952Z,0.00
2023-08-30T01:03:52.891Z,0.00
2023-08-30T01:04:52.804Z,0.00
2023-08-30T01:05:55.823Z,0.00
2023-08-30T01:06:55.777Z,0.00
2023-08-30T01:07:52.782Z,0.00
2023-08-30T01:08:52.828Z,0.00
2023-08-30T01:09:52.734Z,0.00
2023-08-30T01:10:52.733Z,0.00
2023-08-30T01:11:52.697Z,0.00
2023-08-30T01:12:52.738Z,0.00
2023-08-30T01:13:52.753Z,0.00
2023-08-30T01:14:52.662Z,0.00
2023-08-30T01:15:52.645Z,0.00
2023-08-30T01:16:52.676Z,0.00
2023-08-30T01:17:52.653Z,0.00
2023-08-30T01:18:52.605Z,0.00
2023-08-30T01:19:52.681Z,0.00
2023-08-30T01:20:52.591Z,0.00
2023-08-30T01:21:52.565Z,0.00
2023-08-30T01:22:52.565Z,0.00
2023-08-30T01:23:52.542Z,0.00
2023-08-30T01:24:52.546Z,0.00
2023-08-30T01:25:55.539Z,0.00
2023-08-30T01:26:55.522Z,0.00
2023-08-30T01:27:52.496Z,0.00
2023-08-30T01:28:52.499Z,0.00
2023-08-30T01:29:52.502Z,0.00
2023-08-30T01:30:52.509Z,0.00
2023-08-30T01:31:52.451Z,0.00
2023-08-30T01:32:52.514Z,0.00
2023-08-30T01:33:52.465Z,0.00
2023-08-30T01:34:52.456Z,0.00
2023-08-30T01:35:52.468Z,0.00
2023-08-30T01:36:52.474Z,0.00
2023-08-30T01:37:52.344Z,0.00
2023-08-30T01:38:52.346Z,0.00
2023-08-30T01:39:52.334Z,0.00
2023-08-30T01:40:52.312Z,0.00
2023-08-30T01:41:52.313Z,0.00
2023-08-30T01:42:52.274Z,0.00
2023-08-30T01:43:52.337Z,0.00
2023-08-30T01:44:52.250Z,0.00
2023-08-30T01:45:55.310Z,0.00
2023-08-30T01:46:55.260Z,0.00
2023-08-30T01:47:52.269Z,0.00
2023-08-30T01:48:52.205Z,0.00
2023-08-30T01:49:52.221Z,0.00
2023-08-30T01:50:52.179Z,0.00
2023-08-30T01:51:52.160Z,0.00
2023-08-30T01:52:52.211Z,0.00
2023-08-30T01:53:52.139Z,0.00
2023-08-30T01:54:52.124Z,0.00
2023-08-30T01:55:52.098Z,0.00
2023-08-30T01:56:52.138Z,0.00
2023-08-30T01:57:52.076Z,0.00
2023-08-30T01:58:52.095Z,0.00
2023-08-30T01:59:52.056Z,0.00
2023-08-30T02:00:52.064Z,0.00
2023-08-30T02:01:52.055Z,0.00
2023-08-30T02:02:52.033Z,0.00
2023-08-30T02:03:52.005Z,0.00
2023-08-30T02:04:52.053Z,0.00
2023-08-30T02:05:54.967Z,0.00
2023-08-30T02:06:54.949Z,0.00
2023-08-30T02:07:51.930Z,0.00
2023-08-30T02:08:51.972Z,0.00
2023-08-30T02:09:51.901Z,0.00
2023-08-30T02:10:51.909Z,0.00
2023-08-30T02:11:51.873Z,0.00
2023-08-30T02:12:51.862Z,0.00
2023-08-30T02:13:51.934Z,0.00
2023-08-30T02:14:51.842Z,0.00
2023-08-30T02:15:51.907Z,0.00
2023-08-30T02:16:51.826Z,0.00
2023-08-30T02:17:51.870Z,0.00
2023-08-30T02:18:51.782Z,0.00
2023-08-30T02:19:51.840Z,0.00
2023-08-30T02:20:51.786Z,0.00
2023-08-30T02:21:51.745Z,0.00
2023-08-30T02:22:51.725Z,0.00
2023-08-30T02:23:51.727Z,0.00
2023-08-30T02:24:51.694Z,0.00
2023-08-30T02:25:54.765Z,0.00
2023-08-30T02:26:54.703Z,0.00
2023-08-30T02:27:51.661Z,0.00
2023-08-30T02:28:51.634Z,0.00
2023-08-30T02:29:51.621Z,0.00
2023-08-30T02:30:51.669Z,0.00
2023-08-30T02:31:51.666Z,0.00
2023-08-30T02:32:51.607Z,0.00
2023-08-30T02:33:51.613Z,0.00
2023-08-30T02:34:51.568Z,0.00
2023-08-30T02:35:51.547Z,0.00
2023-08-30T02:36:51.565Z,0.00
2023-08-30T02:37:51.523Z,0.00
2023-08-30T02:38:51.507Z,0.00
2023-08-30T02:39:51.507Z,0.00
2023-08-30T02:40:51.502Z,0.00
2023-08-30T02:41:51.506Z,0.00
2023-08-30T02:42:51.446Z,0.00
2023-08-30T02:43:51.435Z,0.00
2023-08-30T02:44:51.413Z,0.00
2023-08-30T02:45:54.466Z,0.00
2023-08-30T02:46:54.424Z,0.00
2023-08-30T02:47:51.457Z,0.00
2023-08-30T02:48:51.452Z,0.00
2023-08-30T02:49:51.361Z,0.00
2023-08-30T02:50:51.356Z,0.00
2023-08-30T02:51:51.342Z,0.00
2023-08-30T02:52:51.316Z,0.00
2023-08-30T02:53:51.337Z,0.00
2023-08-30T02:54:51.330Z,0.00
2023-08-30T02:55:51.309Z,0.00
2023-08-30T02:56:51.261Z,0.00
2023-08-30T02:57:51.251Z,0.00
2023-08-30T02:58:51.242Z,0.00
2023-08-30T02:59:51.323Z,0.00
2023-08-30T03:00:51.229Z,0.00
2023-08-30T03:01:51.201Z,0.00
2023-08-30T03:02:51.252Z,0.00
2023-08-30T03:03:51.177Z,0.00
2023-08-30T03:04:51.172Z,0.00
2023-08-30T03:05:54.190Z,0.00
2023-08-30T03:06:54.150Z,0.00
2023-08-30T03:07:51.107Z,0.00
2023-08-30T03:08:51.100Z,0.00
2023-08-30T03:09:51.082Z,0.00
2023-08-30T03:10:51.140Z,0.00
2023-08-30T03:11:51.053Z,0.00
2023-08-30T03:12:51.046Z,0.00
2023-08-30T03:13:51.048Z,0.00
2023-08-30T03:14:51.016Z,0.00
2023-08-30T03:15:51.091Z,0.00
2023-08-30T03:16:51.046Z,0.00
2023-08-30T03:17:50.971Z,0.00
2023-08-30T03:18:50.986Z,0.00
2023-08-30T03:19:50.957Z,0.00
2023-08-30T03:20:50.935Z,0.00
2023-08-30T03:21:50.923Z,0.00
2023-08-30T03:22:50.933Z,0.00
2023-08-30T03:23:50.947Z,0.00
2023-08-30T03:24:50.882Z,0.00
2023-08-30T03:25:53.859Z,0.00
2023-08-30T03:26:53.903Z,0.00
2023-08-30T03:27:50.867Z,0.00
2023-08-30T03:28:50.854Z,0.00
2023-08-30T03:29:50.819Z,0.00
2023-08-30T03:30:50.821Z,0.00
2023-08-30T03:31:50.772Z,0.00
2023-08-30T03:32:50.893Z,0.00
2023-08-30T03:33:50.803Z,0.00
2023-08-30T03:34:50.745Z,0.00
2023-08-30T03:35:50.733Z,0.00
2023-08-30T03:36:50.770Z,0.00
2023-08-30T03:37:50.708Z,0.00
2023-08-30T03:38:50.716Z,0.00
2023-08-30T03:39:50.670Z,0.00
2023-08-30T03:40:50.687Z,0.00
2023-08-30T03:41:50.641Z,0.00
2023-08-30T03:42:50.633Z,0.00
2023-08-30T03:43:50.656Z,0.00
2023-08-30T03:44:50.599Z,0.00
2023-08-30T03:45:53.665Z,0.00
2023-08-30T03:46:53.664Z,0.00
2023-08-30T03:47:50.667Z,0.00
2023-08-30T03:48:50.575Z,0.00
2023-08-30T03:49:50.560Z,0.00
2023-08-30T03:50:50.584Z,0.00
2023-08-30T03:51:50.542Z,0.00
2023-08-30T03:52:50.526Z,0.00
2023-08-30T03:53:50.474Z,0.00
2023-08-30T03:54:50.458Z,0.00
2023-08-30T03:55:50.488Z,0.00
2023-08-30T03:56:50.443Z,0.00
2023-08-30T03:57:50.442Z,0.00
2023-08-30T03:58:50.475Z,0.00
2023-08-30T03:59:50.400Z,0.00
2023-08-30T04:00:50.461Z,0.00
2023-08-30T04:01:50.381Z,0.00
2023-08-30T04:02:50.425Z,0.00
2023-08-30T04:03:50.414Z,0.00
2023-08-30T04:04:50.348Z,0.00
2023-08-30T04:05:53.386Z,0.00
2023-08-30T04:06:53.305Z,0.00
2023-08-30T04:07:50.312Z,0.00
2023-08-30T04:08:50.272Z,0.00
2023-08-30T04:09:50.276Z,0.00
2023-08-30T04:10:50.300Z,0.00
2023-08-30T04:11:50.291Z,0.00
2023-08-30T04:12:50.220Z,0.00
2023-08-30T04:13:50.209Z,0.00
2023-08-30T04:14:50.240Z,0.00
2023-08-30T04:15:50.198Z,0.00
2023-08-30T04:16:50.263Z,0.00
2023-08-30T04:17:50.180Z,0.00
2023-08-30T04:18:50.135Z,0.00
2023-08-30T04:19:50.166Z,0.00
2023-08-30T04:20:50.118Z,0.00
2023-08-30T04:21:50.103Z,0.00
2023-08-30T04:22:50.114Z,0.00
2023-08-30T04:23:50.144Z,0.00
2023-08-30T04:24:50.057Z,0.00
2023-08-30T04:25:53.035Z,0.00
2023-08-30T04:26:53.095Z,0.00
2023-08-30T04:27:50.029Z,0.00
2023-08-30T04:28:50.026Z,0.00
2023-08-30T04:29:49.995Z,0.00
2023-08-30T04:30:50.022Z,0.00
2023-08-30T04:31:49.967Z,0.00
2023-08-30T04:32:49.977Z,5.62
2023-08-30T04:33:49.999Z,5.62
2023-08-30T04:34:49.920Z,5.62
2023-08-30T04:35:49.919Z,5.62
2023-08-30T04:36:49.888Z,5.62
2023-08-30T04:37:49.897Z,5.62
2023-08-30T04:39:01.819Z,5.62
2023-08-30T04:39:50.863Z,5.62
2023-08-30T04:40:49.882Z,5.62
2023-08-30T04:41:49.830Z,5.62
2023-08-30T04:42:49.810Z,11.25
2023-08-30T04:43:49.796Z,11.25
2023-08-30T04:44:49.848Z,11.25
2023-08-30T04:45:52.768Z,11.25
2023-08-30T04:46:52.748Z,11.25
2023-08-30T04:47:49.772Z,11.25
2023-08-30T04:48:49.749Z,16.88
2023-08-30T04:49:49.721Z,16.88
2023-08-30T04:50:49.738Z,16.88
2023-08-30T04:51:49.751Z,16.88
2023-08-30T04:52:49.698Z,16.88
2023-08-30T04:53:49.675Z,22.50
2023-08-30T04:54:49.637Z,22.50
2023-08-30T04:55:49.697Z,22.50
2023-08-30T04:56:49.620Z,22.50
2023-08-30T04:57:49.616Z,22.50
2023-08-30T04:58:49.593Z,28.12
2023-08-30T04:59:49.583Z,28.12
2023-08-30T05:00:49.681Z,28.12
2023-08-30T05:01:49.573Z,33.75
2023-08-30T05:02:49.593Z,33.75
2023-08-30T05:03:49.584Z,33.75
2023-08-30T05:04:49.498Z,33.75
2023-08-30T05:05:52.542Z,33.75
2023-08-30T05:06:52.521Z,33.75
2023-08-30T05:07:49.479Z,33.75
2023-08-30T05:08:49.447Z,33.75
2023-08-30T05:09:49.463Z,33.75
2023-08-30T05:10:49.423Z,33.75
2023-08-30T05:11:49.446Z,39.38
2023-08-30T05:12:49.415Z,39.38
2023-08-30T05:13:49.413Z,39.38
2023-08-30T05:14:49.369Z,39.38
2023-08-30T05:15:49.364Z,39.38
2023-08-30T05:16:52.554Z,39.38
2023-08-30T05:17:49.457Z,39.38
2023-08-30T05:18:49.319Z,39.38
2023-08-30T05:19:49.299Z,45.00
2023-08-30T05:20:49.284Z,45.00
2023-08-30T05:21:49.294Z,45.00
2023-08-30T05:22:49.287Z,45.00
2023-08-30T05:23:49.245Z,45.00
2023-08-30T05:24:49.232Z,50.62
2023-08-30T05:25:52.212Z,50.62
2023-08-30T05:26:52.206Z,50.62
2023-08-30T05:27:49.226Z,50.62
2023-08-30T05:28:49.184Z,45.00
2023-08-30T05:29:49.183Z,39.38
2023-08-30T05:30:49.183Z,39.38
2023-08-30T05:31:49.143Z,39.38
2023-08-30T05:32:49.190Z,45.00
2023-08-30T05:33:49.106Z,45.00
2023-08-30T05:34:49.123Z,45.00
2023-08-30T05:35:49.077Z,50.62
2023-08-30T05:36:49.068Z,50.62
2023-08-30T05:37:49.067Z,56.25
2023-08-30T05:38:49.080Z,61.88
2023-08-30T05:39:49.030Z,67.50
2023-08-30T05:40:49.013Z,67.50
2023-08-30T05:41:49.049Z,67.50
2023-08-30T05:42:48.986Z,73.12
2023-08-30T05:43:48.982Z,73.12
2023-08-30T05:44:48.986Z,78.75
2023-08-30T05:45:51.967Z,78.75
2023-08-30T05:46:51.926Z,78.75
2023-08-30T05:47:48.954Z,84.38
2023-08-30T05:48:48.943Z,84.38
2023-08-30T05:49:48.917Z,84.38
2023-08-30T05:50:48.909Z,90.00
2023-08-30T05:51:48.917Z,90.00
2023-08-30T05:52:48.850Z,90.00
2023-08-30T05:53:48.836Z,95.62
2023-08-30T05:54:48.817Z,95.62
2023-08-30T05:55:48.853Z,95.62
2023-08-30T05:56:48.792Z,95.62
2023-08-30T05:57:48.777Z,101.25
2023-08-30T05:58:48.762Z,101.25
2023-08-30T05:59:48.748Z,101.25
2023-08-30T06:00:48.786Z,101.25
2023-08-30T06:01:48.801Z,101.25
2023-08-30T06:02:48.724Z,106.88
2023-08-30T06:03:48.748Z,106.88
2023-08-30T06:04:48.685Z,106.88
2023-08-30T06:05:51.723Z,106.88
2023-08-30T06:06:51.655Z,106.88
2023-08-30T06:07:48.656Z,106.88
2023-08-30T06:08:48.742Z,106.88
2023-08-30T06:09:48.625Z,106.88
2023-08-30T06:10:48.604Z,106.88
2023-08-30T06:11:48.580Z,106.88
2023-08-30T06:12:48.568Z,106.88
2023-08-30T06:13:48.603Z,106.88
2023-08-30T06:14:48.543Z,106.88
2023-08-30T06:15:48.573Z,106.88
2023-08-30T06:16:48.519Z,112.50
2023-08-30T06:17:48.529Z,112.50
2023-08-30T06:18:48.497Z,112.50
2023-08-30T06:19:48.532Z,112.50
2023-08-30T06:20:48.475Z,112.50
2023-08-30T06:21:48.468Z,112.50
2023-08-30T06:22:48.436Z,112.50
2023-08-30T06:23:48.424Z,118.12
2023-08-30T06:24:48.432Z,118.12
2023-08-30T06:25:51.416Z,118.12
2023-08-30T06:26:51.388Z,118.12
2023-08-30T06:27:48.362Z,123.75
2023-08-30T06:28:58.654Z,123.75
2023-08-30T06:29:49.331Z,123.75
2023-08-30T06:30:48.347Z,123.75
2023-08-30T06:31:48.334Z,129.38
2023-08-30T06:32:48.350Z,129.38
2023-08-30T06:33:48.329Z,129.38
2023-08-30T06:34:48.276Z,129.38
2023-08-30T06:35:48.270Z,135.00
2023-08-30T06:36:48.246Z,135.00
2023-08-30T06:37:48.218Z,135.00
2023-08-30T06:38:48.221Z,135.00
2023-08-30T06:39:48.220Z,135.00
2023-08-30T06:40:48.200Z,135.00
2023-08-30T06:41:48.205Z,135.00
2023-08-30T06:42:48.164Z,135.00
2023-08-30T06:43:48.149Z,135.00
2023-08-30T06:44:48.185Z,135.00
2023-08-30T06:45:51.137Z,135.00
2023-08-30T06:46:51.105Z,135.00
2023-08-30T06:47:48.121Z,135.00
2023-08-30T06:48:48.076Z,135.00
2023-08-30T06:49:48.085Z,129.38
2023-08-30T06:50:48.078Z,129.38
2023-08-30T06:51:48.056Z,129.38
2023-08-30T06:52:48.032Z,129.38
2023-08-30T06:53:48.007Z,135.00
2023-08-30T06:54:48.021Z,129.38
2023-08-30T06:55:47.995Z,135.00
2023-08-30T06:56:47.969Z,135.00
2023-08-30T06:57:47.949Z,140.62
2023-08-30T06:58:47.996Z,140.62
2023-08-30T06:59:47.920Z,140.62
2023-08-30T07:00:47.926Z,140.62
2023-08-30T07:01:47.979Z,146.25
2023-08-30T07:02:47.927Z,146.25
2023-08-30T07:03:47.889Z,151.88
2023-08-30T07:04:47.915Z,151.88
2023-08-30T07:05:50.837Z,151.88
2023-08-30T07:06:50.833Z,157.50
2023-08-30T07:07:47.809Z,157.50
2023-08-30T07:08:47.805Z,157.50
2023-08-30T07:09:47.804Z,157.50
2023-08-30T07:10:47.818Z,157.50
2023-08-30T07:11:47.751Z,157.50
2023-08-30T07:12:47.750Z,163.12
2023-08-30T07:13:47.736Z,163.12
2023-08-30T07:14:47.714Z,163.12
2023-08-30T07:15:47.798Z,168.75
2023-08-30T07:16:47.713Z,168.75
2023-08-30T07:17:53.628Z,168.75
2023-08-30T07:18:48.701Z,168.75
2023-08-30T07:19:47.642Z,174.38
2023-08-30T07:20:47.684Z,168.75
2023-08-30T07:21:47.660Z,168.75
2023-08-30T07:22:47.639Z,168.75
2023-08-30T07:23:47.599Z,168.75
2023-08-30T07:24:47.568Z,168.75
2023-08-30T07:25:50.550Z,174.38
2023-08-30T07:26:50.671Z,174.38
2023-08-30T07:27:47.544Z,174.38
2023-08-30T07:28:47.517Z,180.00
2023-08-30T07:29:47.539Z,180.00
2023-08-30T07:30:47.543Z,180.00
2023-08-30T07:31:47.468Z,180.00
2023-08-30T07:32:47.513Z,185.62
2023-08-30T07:33:47.446Z,185.62
2023-08-30T07:34:47.454Z,185.62
2023-08-30T07:35:47.411Z,191.25
2023-08-30T07:36:48.364Z,191.25
2023-08-30T07:37:47.447Z,191.25
2023-08-30T07:38:47.380Z,191.25
2023-08-30T07:39:47.393Z,185.62
2023-08-30T07:40:47.349Z,191.25
2023-08-30T07:41:47.340Z,191.25
2023-08-30T07:42:47.388Z,185.62
2023-08-30T07:43:47.311Z,191.25
2023-08-30T07:44:47.300Z,191.25
2023-08-30T07:45:50.301Z,196.88
2023-08-30T07:46:50.272Z,191.25
2023-08-30T07:47:47.268Z,185.62
2023-08-30T07:48:47.272Z,185.62
2023-08-30T07:49:47.266Z,191.25
2023-08-30T07:50:47.229Z,191.25
2023-08-30T07:51:47.197Z,185.62
2023-08-30T07:52:47.193Z,185.62
2023-08-30T07:53:47.177Z,191.25
2023-08-30T07:54:47.235Z,185.62
2023-08-30T07:55:47.171Z,185.62
2023-08-30T07:56:47.129Z,191.25
2023-08-30T07:57:47.127Z,185.62
2023-08-30T07:58:47.138Z,185.62
2023-08-30T07:59:47.131Z,191.25
2023-08-30T08:00:47.159Z,185.62
2023-08-30T08:01:47.084Z,185.62
2023-08-30T08:02:47.113Z,191.25
2023-08-30T08:04:04.361Z,191.25
2023-08-30T08:04:48.080Z,191.25
2023-08-30T08:05:50.014Z,191.25
2023-08-30T08:06:56.662Z,191.25
2023-08-30T08:07:47.982Z,196.88
2023-08-30T08:08:47.069Z,196.88
2023-08-30T08:09:46.964Z,196.88
2023-08-30T08:10:47.005Z,196.88
2023-08-30T08:11:47.065Z,196.88
2023-08-30T08:12:47.006Z,196.88
2023-08-30T08:13:47.059Z,202.50
2023-08-30T08:14:46.929Z,196.88
2023-08-30T08:15:46.920Z,196.88
2023-08-30T08:16:46.866Z,202.50
2023-08-30T08:17:46.964Z,202.50
2023-08-30T08:18:46.841Z,202.50
2023-08-30T08:19:46.830Z,202.50
2023-08-30T08:20:46.820Z,202.50
2023-08-30T08:21:46.845Z,208.12
2023-08-30T08:22:46.838Z,208.12
2023-08-30T08:23:46.870Z,202.50
2023-08-30T08:24:46.767Z,202.50
2023-08-30T08:25:49.840Z,202.50
2023-08-30T08:26:49.733Z,208.12
2023-08-30T08:27:46.745Z,208.12
2023-08-30T08:28:46.709Z,208.12
2023-08-30T08:29:46.736Z,213.75
2023-08-30T08:30:46.720Z,213.75
2023-08-30T08:31:46.733Z,219.38
2023-08-30T08:32:46.710Z,213.75
2023-08-30T08:33:46.646Z,219.38
2023-08-30T08:34:46.637Z,219.38
2023-08-30T08:35:46.626Z,213.75
2023-08-30T08:36:46.654Z,213.75
2023-08-30T08:37:46.626Z,213.75
2023-08-30T08:38:48.190Z,213.75
2023-08-30T08:39:46.553Z,213.75
2023-08-30T08:40:46.609Z,213.75
2023-08-30T08:41:46.571Z,213.75
2023-08-30T08:42:46.571Z,213.75
2023-08-30T08:43:46.508Z,219.38
2023-08-30T08:44:46.540Z,219.38
2023-08-30T08:45:49.473Z,213.75
2023-08-30T08:46:49.529Z,219.38
2023-08-30T08:47:46.475Z,219.38
2023-08-30T08:48:46.446Z,213.75
2023-08-30T08:49:46.421Z,219.38
2023-08-30T08:50:46.466Z,219.38
2023-08-30T08:51:46.609Z,219.38
2023-08-30T08:53:46.353Z,219.38
2023-08-30T08:54:46.404Z,219.38
2023-08-30T08:55:46.324Z,219.38
2023-08-30T08:56:46.315Z,219.38
2023-08-30T08:57:47.432Z,213.75
2023-08-30T08:58:46.298Z,208.12
2023-08-30T08:59:46.280Z,213.75
2023-08-30T09:00:46.326Z,208.12
2023-08-30T09:01:46.272Z,208.12
2023-08-30T09:02:46.387Z,208.12
2023-08-30T09:03:46.336Z,219.38
2023-08-30T09:04:46.219Z,202.50
2023-08-30T09:05:49.250Z,202.50
2023-08-30T09:06:49.178Z,202.50
2023-08-30T09:07:46.157Z,208.12
2023-08-30T09:08:46.146Z,202.50
2023-08-30T09:09:46.140Z,219.38
2023-08-30T09:10:46.117Z,213.75
2023-08-30T09:11:51.654Z,213.75
2023-08-30T09:12:47.095Z,213.75
2023-08-30T09:13:46.076Z,213.75
2023-08-30T09:14:46.074Z,208.12
2023-08-30T09:15:46.060Z,208.12
2023-08-30T09:16:46.106Z,213.75
2023-08-30T09:17:46.112Z,213.75
2023-08-30T09:18:50.730Z,213.75
2023-08-30T09:19:46.990Z,213.75
2023-08-30T09:20:46.021Z,213.75
2023-08-30T09:21:46.010Z,213.75
2023-08-30T09:22:45.971Z,213.75
2023-08-30T09:23:45.957Z,213.75
2023-08-30T09:24:45.930Z,213.75
2023-08-30T09:25:48.929Z,213.75
2023-08-30T09:26:48.905Z,213.75
2023-08-30T09:27:45.905Z,213.75
2023-08-30T09:28:45.875Z,213.75
2023-08-30T09:29:47.040Z,213.75
2023-08-30T09:30:45.918Z,213.75
2023-08-30T09:31:45.901Z,213.75
2023-08-30T09:32:45.895Z,213.75
2023-08-30T09:33:45.800Z,213.75
2023-08-30T09:34:45.841Z,213.75
2023-08-30T09:35:45.786Z,213.75
2023-08-30T09:36:45.760Z,213.75
2023-08-30T09:37:45.754Z,213.75
2023-08-30T09:38:45.733Z,213.75
2023-08-30T09:39:45.718Z,213.75
2023-08-30T09:40:45.740Z,213.75
2023-08-30T09:41:45.739Z,213.75
2023-08-30T09:42:48.990Z,213.75
2023-08-30T09:43:47.504Z,213.75
2023-08-30T09:44:45.745Z,213.75
2023-08-30T09:45:48.757Z,202.50
2023-08-30T09:46:52.174Z,213.75
2023-08-30T09:47:45.618Z,196.88
2023-08-30T09:48:45.658Z,213.75
2023-08-30T09:49:45.598Z,219.38
2023-08-30T09:50:45.611Z,219.38
2023-08-30T09:51:45.613Z,230.62
2023-08-30T09:52:45.554Z,230.62
2023-08-30T09:54:00.600Z,236.25
2023-08-30T09:54:46.527Z,247.50
2023-08-30T09:55:45.541Z,253.12
2023-08-30T09:56:45.487Z,253.12
2023-08-30T09:57:45.523Z,253.12
2023-08-30T09:58:45.466Z,247.50
2023-08-30T09:59:45.476Z,247.50
2023-08-30T10:00:45.470Z,247.50
2023-08-30T10:01:45.490Z,247.50
2023-08-30T10:02:57.837Z,241.88
2023-08-30T10:03:46.447Z,236.25
2023-08-30T10:04:45.527Z,236.25
2023-08-30T10:05:48.392Z,236.25
2023-08-30T10:06:48.450Z,236.25
2023-08-30T10:07:45.339Z,236.25
2023-08-30T10:08:45.338Z,241.88
2023-08-30T10:09:58.997Z,241.88
2023-08-30T10:10:46.377Z,241.88
2023-08-30T10:11:45.287Z,247.50
2023-08-30T10:12:50.572Z,253.12
2023-08-30T10:13:46.263Z,253.12
2023-08-30T10:14:45.253Z,253.12
2023-08-30T10:15:45.294Z,253.12
2023-08-30T10:16:45.435Z,253.12
2023-08-30T10:17:45.229Z,247.50
2023-08-30T10:18:52.256Z,241.88
2023-08-30T10:19:46.180Z,241.88
2023-08-30T10:20:45.151Z,241.88
2023-08-30T10:21:45.214Z,236.25
2023-08-30T10:22:45.155Z,236.25
2023-08-30T10:23:45.159Z,236.25
2023-08-30T10:25:01.868Z,236.25
2023-08-30T10:25:51.106Z,236.25
2023-08-30T10:26:48.089Z,236.25
2023-08-30T10:27:45.083Z,241.88
2023-08-30T10:28:45.114Z,247.50
2023-08-30T10:29:45.044Z,253.12
2023-08-30T10:30:45.022Z,247.50
2023-08-30T10:31:45.033Z,219.38
2023-08-30T10:32:45.039Z,213.75
2023-08-30T10:33:45.013Z,219.38
2023-08-30T10:34:44.966Z,258.75
2023-08-30T10:35:44.976Z,247.50
2023-08-30T10:36:44.945Z,241.88
2023-08-30T10:37:44.929Z,253.12
2023-08-30T10:38:44.948Z,247.50
2023-08-30T10:39:44.941Z,241.88
2023-08-30T10:40:44.884Z,247.50
2023-08-30T10:41:44.872Z,247.50
2023-08-30T10:42:44.872Z,247.50
2023-08-30T10:43:44.873Z,230.62
2023-08-30T10:45:47.939Z,230.62
2023-08-30T10:46:47.946Z,258.75
2023-08-30T10:47:44.844Z,253.12
2023-08-30T10:48:44.798Z,230.62
2023-08-30T10:49:44.782Z,253.12
2023-08-30T10:50:44.776Z,253.12
2023-08-30T10:51:44.741Z,253.12
2023-08-30T10:52:44.737Z,247.50
2023-08-30T10:53:44.743Z,253.12
2023-08-30T10:54:44.718Z,253.12
2023-08-30T10:55:44.729Z,241.88
2023-08-30T10:56:44.666Z,253.12
2023-08-30T10:57:44.903Z,253.12
2023-08-30T10:58:44.649Z,247.50
2023-08-30T10:59:44.635Z,241.88
2023-08-30T11:00:44.650Z,241.88
2023-08-30T11:01:46.133Z,213.75
2023-08-30T11:02:44.583Z,202.50
2023-08-30T11:03:44.589Z,241.88
2023-08-30T11:04:44.579Z,236.25
2023-08-30T11:05:47.567Z,247.50
2023-08-30T11:06:47.565Z,241.88
2023-08-30T11:07:44.533Z,236.25
2023-08-30T11:08:44.517Z,236.25
2023-08-30T11:09:44.494Z,236.25
2023-08-30T11:10:44.524Z,236.25
2023-08-30T11:11:44.452Z,236.25
2023-08-30T11:12:44.477Z,236.25
2023-08-30T11:13:44.427Z,230.62
2023-08-30T11:14:44.412Z,236.25
2023-08-30T11:15:44.420Z,236.25
2023-08-30T11:16:44.459Z,230.62
2023-08-30T11:17:44.479Z,230.62
2023-08-30T11:18:44.364Z,219.38
2023-08-30T11:19:44.379Z,241.88
2023-08-30T11:20:44.336Z,225.00
2023-08-30T11:21:44.334Z,230.62
2023-08-30T11:22:44.342Z,213.75
2023-08-30T11:23:44.312Z,196.88
2023-08-30T11:24:45.913Z,236.25
2023-08-30T11:25:47.281Z,191.25
2023-08-30T11:26:47.307Z,196.88
2023-08-30T11:27:44.280Z,202.50
2023-08-30T11:28:44.235Z,196.88
2023-08-30T11:29:44.209Z,196.88
2023-08-30T11:30:44.260Z,196.88
2023-08-30T11:31:44.192Z,196.88
2023-08-30T11:32:44.605Z,191.25
2023-08-30T11:33:44.191Z,185.62
2023-08-30T11:34:44.189Z,180.00
2023-08-30T11:35:44.145Z,168.75
2023-08-30T11:36:44.112Z,157.50
2023-08-30T11:37:44.131Z,151.88
2023-08-30T11:38:44.112Z,146.25
2023-08-30T11:39:44.175Z,146.25
2023-08-30T11:40:44.105Z,146.25
2023-08-30T11:41:44.071Z,163.12
2023-08-30T11:42:44.085Z,180.00
2023-08-30T11:43:44.081Z,191.25
2023-08-30T11:44:44.022Z,196.88
2023-08-30T11:45:47.002Z,208.12
2023-08-30T11:46:46.979Z,202.50
2023-08-30T11:47:44.670Z,202.50
2023-08-30T11:48:43.942Z,213.75
2023-08-30T11:49:44.008Z,225.00
2023-08-30T11:50:48.814Z,230.62
2023-08-30T11:51:44.929Z,236.25
2023-08-30T11:52:43.902Z,236.25
2023-08-30T11:53:43.888Z,225.00
2023-08-30T11:54:43.893Z,219.38
2023-08-30T11:55:43.856Z,213.75
2023-08-30T11:56:43.826Z,208.12
2023-08-30T11:57:43.818Z,191.25
2023-08-30T11:58:43.821Z,191.25
2023-08-30T11:59:44.601Z,185.62
2023-08-30T12:00:43.847Z,180.00
2023-08-30T12:01:43.770Z,180.00
2023-08-30T12:02:43.814Z,174.38
2023-08-30T12:03:43.804Z,168.75
2023-08-30T12:04:43.734Z,157.50
2023-08-30T12:05:46.743Z,151.88
2023-08-30T12:06:46.731Z,146.25
2023-08-30T12:07:43.725Z,135.00
2023-08-30T12:08:43.666Z,129.38
2023-08-30T12:09:43.686Z,123.75
2023-08-30T12:10:43.732Z,118.12
2023-08-30T12:11:43.637Z,112.50
2023-08-30T12:12:43.668Z,112.50
2023-08-30T12:13:43.605Z,112.50
2023-08-30T12:14:43.604Z,106.88
2023-08-30T12:15:43.639Z,106.88
2023-08-30T12:16:43.576Z,106.88
2023-08-30T12:17:43.574Z,106.88
2023-08-30T12:18:43.561Z,106.88
2023-08-30T12:19:43.520Z,106.88
2023-08-30T12:20:43.536Z,112.50
2023-08-30T12:21:43.561Z,112.50
2023-08-30T12:22:43.484Z,112.50
2023-08-30T12:23:43.489Z,118.12
2023-08-30T12:24:43.461Z,123.75
2023-08-30T12:25:46.464Z,129.38
2023-08-30T12:26:46.459Z,135.00
2023-08-30T12:27:43.408Z,135.00
2023-08-30T12:28:43.392Z,135.00
2023-08-30T12:29:43.378Z,135.00
2023-08-30T12:30:43.365Z,135.00
2023-08-30T12:31:43.418Z,135.00
2023-08-30T12:32:43.378Z,135.00
2023-08-30T12:33:43.348Z,135.00
2023-08-30T12:34:43.311Z,135.00
2023-08-30T12:35:43.320Z,135.00
2023-08-30T12:36:43.319Z,129.38
2023-08-30T12:37:43.285Z,129.38
2023-08-30T12:38:43.259Z,129.38
2023-08-30T12:39:43.252Z,123.75
2023-08-30T12:40:43.234Z,118.12
2023-08-30T12:41:43.273Z,112.50
2023-08-30T12:42:43.214Z,106.88
2023-08-30T12:43:43.214Z,101.25
2023-08-30T12:44:43.178Z,101.25
2023-08-30T12:45:46.245Z,95.62
2023-08-30T12:46:46.152Z,90.00
2023-08-30T12:47:43.151Z,84.38
2023-08-30T12:48:43.176Z,84.38
2023-08-30T12:49:43.108Z,84.38
2023-08-30T12:50:43.090Z,84.38